Stations météo

réclame
Mon MeteoGroup
Fehmarnbelt/Grosstonne, Allemagne (10043): Température de l'air & dewpoint: 13.07.2018 15:00:00 - 19.07.2018 15:00:00 (CEST)Fehmarnbelt/Grosstonne, Allemagne (10043): water temperature: 13.07.2018 15:00:00 - 19.07.2018 15:00:00 (CEST)Fehmarnbelt/Grosstonne, Allemagne (10043): reduced air pressure: 13.07.2018 15:00:00 - 19.07.2018 15:00:00 (CEST)
Date & Time tt [°C] td [°C] tw [°C] ppp [hPa]
19.07.2018 15:00:00 - - - -
19.07.2018 14:00:00 19,9 14,7 19,9 1018,3
19.07.2018 13:00:00 19,2 14,0 19,8 1018,4
19.07.2018 12:00:00 19,4 12,7 19,7 1018,4
19.07.2018 11:00:00 18,9 14,0 19,6 1018,3
19.07.2018 10:00:00 18,4 12,2 19,5 1018,4
19.07.2018 09:00:00 17,9 13,2 19,5 1018,3
19.07.2018 08:00:00 17,2 12,5 19,5 1018,1
19.07.2018 07:00:00 17,4 12,2 19,5 1017,8
19.07.2018 06:00:00 - - - -
19.07.2018 05:00:00 - - - -
19.07.2018 04:00:00 18,0 13,2 19,7 1017,4
19.07.2018 03:00:00 18,5 13,4 19,7 1017,4
19.07.2018 02:00:00 19,0 13,0 19,8 1017,4
19.07.2018 01:00:00 19,5 13,7 19,8 1017,2
19.07.2018 00:00:00 20,0 15,0 19,9 1016,9
18.07.2018 23:00:00 20,5 15,0 19,9 1016,4
18.07.2018 22:00:00 20,7 15,2 20,0 1016,2
18.07.2018 21:00:00 21,2 15,7 20,1 1015,9
18.07.2018 20:00:00 21,7 16,0 20,1 1015,6
18.07.2018 19:00:00 21,2 17,2 20,1 1015,4
18.07.2018 18:00:00 21,2 16,5 20,1 1015,4
18.07.2018 17:00:00 21,4 16,4 20,2 1015,5
18.07.2018 16:00:00 21,2 16,4 20,2 1015,6
18.07.2018 15:00:00 20,7 16,5 20,2 1015,5
18.07.2018 14:00:00 20,5 16,2 20,2 1015,4
18.07.2018 13:00:00 20,2 16,0 20,1 1015,5
18.07.2018 12:00:00 19,7 16,0 19,7 1015,1
18.07.2018 11:00:00 19,2 16,0 19,5 1015,0
18.07.2018 10:00:00 18,7 16,0 19,5 1014,7
18.07.2018 09:00:00 18,7 16,0 19,5 1014,4
18.07.2018 08:00:00 - - - -
18.07.2018 07:00:00 - - - -
18.07.2018 06:00:00 18,2 16,5 19,4 1013,9
18.07.2018 05:00:00 18,5 17,0 19,4 1013,7
18.07.2018 04:00:00 19,2 17,7 19,5 1013,6
18.07.2018 03:00:00 19,7 18,2 19,9 1013,5
18.07.2018 02:00:00 21,0 16,5 20,3 1013,3
18.07.2018 01:00:00 21,9 17,4 20,8 1013,2
18.07.2018 00:00:00 21,2 17,5 20,9 1013,3
17.07.2018 23:00:00 21,5 16,7 21,0 1013,1
17.07.2018 22:00:00 21,5 17,9 20,8 1012,8
17.07.2018 21:00:00 22,9 19,0 21,2 1012,6
17.07.2018 20:00:00 22,7 20,2 21,3 1012,3
17.07.2018 19:00:00 - - - -
17.07.2018 18:00:00 23,5 18,7 20,9 1012,3
17.07.2018 17:00:00 23,9 18,9 20,8 1012,5
17.07.2018 16:00:00 23,4 19,2 20,7 1012,6
17.07.2018 15:00:00 23,5 18,5 20,4 1012,9
17.07.2018 14:00:00 23,0 18,4 20,2 1012,9
17.07.2018 13:00:00 22,5 18,7 20,1 1013,2
17.07.2018 12:00:00 23,7 18,7 19,8 1013,0
17.07.2018 11:00:00 23,9 18,7 19,9 1013,1
17.07.2018 10:00:00 22,0 18,5 19,9 1013,1
17.07.2018 09:00:00 20,2 18,0 19,8 1013,2
17.07.2018 08:00:00 - - - -
17.07.2018 07:00:00 19,7 17,7 19,7 1012,6
17.07.2018 06:00:00 19,2 18,2 20,0 1012,6
17.07.2018 05:00:00 - - - -
17.07.2018 04:00:00 18,9 17,7 19,7 1013,0
17.07.2018 03:00:00 19,5 18,0 20,0 1013,3
17.07.2018 02:00:00 - - - -
17.07.2018 01:00:00 - - - -
17.07.2018 00:00:00 20,4 16,4 19,8 1013,5
16.07.2018 23:00:00 21,0 16,7 20,2 1013,6
16.07.2018 22:00:00 21,7 17,2 20,2 1013,5
16.07.2018 21:00:00 22,0 16,7 20,3 1013,4
16.07.2018 20:00:00 22,7 16,2 20,4 1013,2
16.07.2018 19:00:00 23,2 16,5 20,5 1013,3
16.07.2018 18:00:00 23,2 17,2 20,3 1013,4
16.07.2018 17:00:00 22,2 17,0 20,2 1013,7
16.07.2018 16:00:00 22,0 16,5 20,0 1014,0
16.07.2018 15:00:00 - - - -
16.07.2018 14:00:00 21,5 16,5 19,5 1015,2
16.07.2018 13:00:00 21,2 16,4 19,4 1015,5
16.07.2018 12:00:00 - - - -
16.07.2018 11:00:00 - - - -
16.07.2018 10:00:00 20,5 16,2 19,2 1015,9
16.07.2018 09:00:00 19,0 15,5 19,0 1016,3
16.07.2018 08:00:00 18,5 15,5 18,9 1016,5
16.07.2018 07:00:00 18,7 15,7 18,9 1016,6
16.07.2018 06:00:00 18,5 16,0 19,0 1016,6
16.07.2018 05:00:00 18,4 17,4 19,0 1016,4
16.07.2018 04:00:00 18,7 16,5 19,1 1016,4
16.07.2018 03:00:00 - - - -
16.07.2018 02:00:00 19,0 15,9 19,1 1016,7
16.07.2018 01:00:00 - - - -
16.07.2018 00:00:00 19,7 16,2 19,2 1016,9
15.07.2018 23:00:00 - - - -
15.07.2018 22:00:00 19,7 16,9 19,3 1016,7
15.07.2018 21:00:00 20,9 16,4 19,4 1016,6
15.07.2018 20:00:00 20,7 15,7 19,5 1016,4
15.07.2018 19:00:00 20,7 15,5 19,5 1016,6
15.07.2018 18:00:00 21,0 15,5 19,6 1017,1
15.07.2018 17:00:00 21,2 15,2 19,6 1017,6
15.07.2018 16:00:00 20,4 14,5 19,3 1017,8
15.07.2018 15:00:00 19,7 14,2 19,3 1018,1
15.07.2018 14:00:00 19,0 14,5 19,1 1018,5
15.07.2018 13:00:00 18,7 14,7 18,9 1018,9
15.07.2018 12:00:00 - - - -
15.07.2018 11:00:00 18,2 14,4 18,5 1019,0
15.07.2018 10:00:00 17,0 13,5 18,4 1019,0
15.07.2018 09:00:00 16,5 13,2 18,3 1018,8
15.07.2018 08:00:00 16,5 14,2 18,3 1018,6
15.07.2018 07:00:00 16,4 14,0 18,2 1018,3
15.07.2018 06:00:00 16,2 13,7 18,2 1018,1
15.07.2018 05:00:00 - - - -
15.07.2018 04:00:00 16,5 13,2 18,3 1018,2
15.07.2018 03:00:00 16,7 13,5 18,3 1018,3
15.07.2018 02:00:00 16,7 14,2 18,4 1018,3
15.07.2018 01:00:00 17,0 13,9 18,5 1018,4
15.07.2018 00:00:00 17,5 13,7 18,5 1018,1
14.07.2018 23:00:00 17,7 13,7 18,6 1018,1
14.07.2018 22:00:00 18,0 13,2 18,6 1018,1
14.07.2018 21:00:00 18,5 12,2 18,6 1017,8
14.07.2018 20:00:00 18,7 12,7 18,7 1018,1
14.07.2018 19:00:00 18,5 12,2 18,7 1018,3
14.07.2018 18:00:00 18,0 12,2 18,7 1018,4
14.07.2018 17:00:00 18,0 12,7 18,6 1018,8
14.07.2018 16:00:00 17,2 11,5 18,5 1019,4
14.07.2018 15:00:00 17,2 11,9 18,5 1019,7
14.07.2018 14:00:00 16,7 11,2 18,4 1019,8
14.07.2018 13:00:00 16,2 12,2 18,4 1020,1
14.07.2018 12:00:00 16,0 11,2 18,4 1020,1
14.07.2018 11:00:00 15,7 11,2 18,4 1020,1
14.07.2018 10:00:00 16,0 11,4 18,4 1019,9
14.07.2018 09:00:00 15,5 10,9 18,4 1019,6
14.07.2018 08:00:00 15,2 11,2 18,4 1019,4
14.07.2018 07:00:00 - - - -
14.07.2018 06:00:00 15,0 11,5 18,4 1019,0
14.07.2018 05:00:00 15,0 11,7 18,5 1019,0
14.07.2018 04:00:00 15,2 12,4 18,5 1019,0
14.07.2018 03:00:00 15,2 12,0 18,5 1019,0
14.07.2018 02:00:00 15,7 12,7 18,5 1018,8
14.07.2018 01:00:00 16,5 13,2 18,6 1018,8
14.07.2018 00:00:00 - - - -
13.07.2018 23:00:00 - - - -
13.07.2018 22:00:00 - - - -
13.07.2018 21:00:00 18,7 14,7 19,1 1017,7
13.07.2018 20:00:00 19,7 14,5 19,1 1017,2
13.07.2018 19:00:00 20,4 15,2 19,1 1017,1
13.07.2018 18:00:00 20,9 16,0 19,1 1017,2
13.07.2018 17:00:00 21,2 16,2 19,0 1017,4
13.07.2018 16:00:00 - - - -
13.07.2018 15:00:00 21,0 15,0 18,7 1017,6

tt = Température de l'air
td = dewpoint
tw = water temperature
ppp = reduced air pressure

stations d'obs. à proximité